Time;durP1;ratioP1;P1;durP2;ratioP2;P2;SDS_P1;SDS_P2;PMS_P1;PMS_P2;Temp;Humidity;BMP_temperature;BMP_pressure;BME280_temperature;BME280_humidity;BME280_pressure;Samples;Min_cycle;Max_cycle;Signal;HPM_P1;HPM_P2
2022/07/10 00:00:17;;;;;;;3.67;0.90;;;;;;;17.11;67.44;100613.28;2073189;28;20402;-70
2022/07/10 00:01:23;;;;;;;2.88;1.15;;;;;;;17.10;67.38;100610.91;2078806;28;20048;-70
2022/07/10 00:02:24;;;;;;;4.68;0.93;;;;;;;17.09;67.47;100612.84;2072263;28;20064;-71
2022/07/10 00:03:27;;;;;;;3.20;0.85;;;;;;;17.09;67.60;100612.84;2064526;28;20057;-71
2022/07/10 00:04:34;;;;;;;7.38;1.35;;;;;;;17.11;67.63;100609.78;2073112;28;20049;-70
2022/07/10 00:05:39;;;;;;;3.15;1.40;;;;;;;17.12;67.64;100614.91;2089131;28;20036;-71
2022/07/10 00:06:46;;;;;;;3.83;0.90;;;;;;;17.14;67.80;100611.84;2089291;28;20047;-72
2022/07/10 00:07:54;;;;;;;4.78;1.23;;;;;;;17.17;67.79;100608.50;2089227;28;20049;-72
2022/07/10 00:08:56;;;;;;;5.63;0.90;;;;;;;17.18;67.66;100610.13;2080336;28;20496;-71
2022/07/10 00:09:58;;;;;;;3.00;1.00;;;;;;;17.19;67.69;100614.41;2055972;28;20042;-71
2022/07/10 00:11:03;;;;;;;3.55;0.90;;;;;;;17.18;67.63;100607.41;2064090;28;20058;-72
2022/07/10 00:12:08;;;;;;;1.70;0.80;;;;;;;17.17;67.87;100611.22;2086902;28;20044;-72
2022/07/10 00:13:10;;;;;;;2.25;0.80;;;;;;;17.17;67.95;100615.84;2080291;28;20037;-72
2022/07/10 00:14:12;;;;;;;3.80;1.30;;;;;;;17.18;68.00;100610.13;2071913;28;20057;-71
2022/07/10 00:15:16;;;;;;;2.78;0.85;;;;;;;17.19;68.16;100610.91;2071793;28;20053;-72
2022/07/10 00:16:19;;;;;;;2.92;0.88;;;;;;;17.18;68.35;100607.41;2079914;28;20418;-72
2022/07/10 00:17:23;;;;;;;2.60;1.00;;;;;;;17.18;68.21;100604.69;2064067;28;20041;-72
2022/07/10 00:18:29;;;;;;;3.97;0.90;;;;;;;17.12;68.25;100601.31;2064929;28;20039;-71
2022/07/10 00:19:32;;;;;;;5.40;1.00;;;;;;;17.14;68.12;100604.50;2064757;28;20105;-71
2022/07/10 00:20:37;;;;;;;3.22;0.98;;;;;;;17.15;68.12;100605.31;2080428;28;20048;-71
2022/07/10 00:21:41;;;;;;;10.38;1.13;;;;;;;17.16;68.06;100601.47;2080910;28;20041;-70
2022/07/10 00:22:43;;;;;;;4.60;0.95;;;;;;;17.17;68.01;100594.13;2072057;28;20206;-70
2022/07/10 00:23:45;;;;;;;5.30;1.20;;;;;;;17.17;67.85;100592.19;2072759;28;20040;-70
2022/07/10 00:24:50;;;;;;;8.95;1.40;;;;;;;17.15;68.17;100594.47;2072203;28;20443;-71
2022/07/10 00:25:55;;;;;;;4.10;1.10;;;;;;;17.13;68.06;100596.69;2072675;28;20069;-71
2022/07/10 00:27:01;;;;;;;2.72;1.08;;;;;;;17.15;68.31;100599.91;2064852;28;20042;-71
2022/07/10 00:28:02;;;;;;;4.13;1.02;;;;;;;17.14;68.01;100601.00;2072119;28;20042;-70
2022/07/10 00:29:05;;;;;;;4.32;0.93;;;;;;;17.13;67.98;100597.47;2071331;28;20065;-70
2022/07/10 00:30:08;;;;;;;2.72;1.10;;;;;;;17.13;67.86;100596.69;2072074;28;20497;-70
2022/07/10 00:31:12;;;;;;;2.10;0.80;;;;;;;17.13;68.06;100597.47;2072535;28;20040;-70
2022/07/10 00:32:20;;;;;;;4.90;1.13;;;;;;;17.13;67.96;100588.53;2079984;28;20050;-70
2022/07/10 00:33:22;;;;;;;4.38;0.98;;;;;;;17.13;67.99;100594.75;2080141;28;20053;-70
2022/07/10 00:34:26;;;;;;;3.20;1.23;;;;;;;17.15;67.93;100586.31;2065806;28;20042;-70
2022/07/10 00:35:30;;;;;;;5.32;1.00;;;;;;;17.14;67.82;100588.19;2059044;28;20051;-70
2022/07/10 00:36:32;;;;;;;3.28;0.90;;;;;;;17.15;67.72;100583.59;2058052;28;20053;-71
2022/07/10 00:37:38;;;;;;;2.22;0.73;;;;;;;17.14;67.99;100582.78;2074600;28;20058;-70
2022/07/10 00:38:42;;;;;;;2.75;0.77;;;;;;;17.14;68.24;100579.25;2084043;28;20041;-70
2022/07/10 00:39:47;;;;;;;5.35;1.00;;;;;;;17.14;68.13;100574.63;2073697;28;20045;-70
2022/07/10 00:40:49;;;;;;;5.40;0.60;;;;;;;17.13;67.86;100575.75;2074371;28;20497;-71
2022/07/10 00:41:56;;;;;;;3.40;0.80;;;;;;;17.13;68.07;100569.53;2074042;28;20058;-70
2022/07/10 00:42:59;;;;;;;3.03;0.80;;;;;;;17.13;68.00;100566.81;2080114;28;20056;-70
2022/07/10 00:44:02;;;;;;;6.15;0.93;;;;;;;17.13;68.03;100569.53;2081952;28;20037;-70
2022/07/10 00:45:08;;;;;;;5.10;1.30;;;;;;;17.12;68.02;100565.22;2082158;28;20057;-70
2022/07/10 00:46:20;;;;;;;1.98;0.68;;;;;;;17.12;68.06;100562.50;2081950;28;20413;-70
2022/07/10 00:47:26;;;;;;;5.60;0.85;;;;;;;17.12;67.71;100567.94;2067438;28;20042;-70
2022/07/10 00:48:27;;;;;;;2.78;0.98;;;;;;;17.12;67.75;100557.06;2058663;28;20042;-70
2022/07/10 00:49:36;;;;;;;3.10;1.13;;;;;;;17.12;67.92;100557.88;2066467;28;20418;-70
2022/07/10 00:50:40;;;;;;;5.00;0.93;;;;;;;17.12;67.93;100559.78;2073562;28;20042;-69
2022/07/10 00:51:44;;;;;;;5.15;0.90;;;;;;;17.11;68.25;100561.69;2073728;28;20061;-69
2022/07/10 00:52:50;;;;;;;4.13;0.95;;;;;;;17.09;68.06;100555.78;2082267;28;20061;-70
2022/07/10 00:53:59;;;;;;;4.03;0.90;;;;;;;17.11;68.26;100555.44;2073493;28;20524;-70
2022/07/10 00:55:03;;;;;;;2.70;0.75;;;;;;;17.09;68.15;100555.78;2074988;28;20425;-71
2022/07/10 00:56:10;;;;;;;4.47;0.90;;;;;;;17.08;68.16;100556.09;2073698;28;20046;-69
2022/07/10 00:57:16;;;;;;;3.80;0.93;;;;;;;17.06;68.18;100550.19;2074383;28;20509;-69
2022/07/10 00:58:20;;;;;;;3.13;0.80;;;;;;;17.07;67.91;100554.50;2073623;28;20052;-69
2022/07/10 00:59:32;;;;;;;5.28;1.00;;;;;;;17.08;68.17;100547.94;2073762;28;20054;-69
2022/07/10 01:00:37;;;;;;;3.38;0.90;;;;;;;17.08;68.00;100547.94;2074087;28;20053;-70
2022/07/10 01:01:39;;;;;;;5.35;1.10;;;;;;;17.08;68.07;100545.22;2081695;28;20516;-69
2022/07/10 01:02:44;;;;;;;4.25;0.98;;;;;;;17.07;68.17;100535.50;2073521;28;20046;-69
2022/07/10 01:03:47;;;;;;;5.72;0.80;;;;;;;17.06;67.94;100536.63;2074337;28;20045;-70
2022/07/10 01:04:48;;;;;;;5.53;0.85;;;;;;;17.06;68.03;100547.50;2086886;28;20060;-70
2022/07/10 01:05:59;;;;;;;2.58;0.70;;;;;;;17.06;67.98;100547.50;2073372;28;20041;-69
2022/07/10 01:07:02;;;;;;;2.92;0.90;;;;;;;17.06;68.08;100548.28;2076148;28;20056;-69
2022/07/10 01:08:12;;;;;;;3.33;0.93;;;;;;;17.04;68.01;100552.44;2078079;28;20046;-69
2022/07/10 01:09:19;;;;;;;6.03;2.17;;;;;;;17.03;68.09;100554.34;2067196;28;20034;-69
2022/07/10 01:10:25;;;;;;;7.43;1.40;;;;;;;17.03;67.96;100559.00;2065625;28;20698;-68
2022/07/10 01:11:33;;;;;;;4.47;1.63;;;;;;;17.02;67.85;100551.94;2067526;28;20510;-69
2022/07/10 01:12:38;;;;;;;3.55;1.25;;;;;;;17.02;68.02;100562.81;2074638;28;20106;-68
2022/07/10 01:13:43;;;;;;;4.50;1.35;;;;;;;17.01;68.05;100544.94;2073482;28;20034;-68
2022/07/10 01:14:48;;;;;;;6.30;2.88;;;;;;;17.01;68.09;100550.38;2074167;28;20386;-68
2022/07/10 01:15:53;;;;;;;3.45;1.00;;;;;;;17.00;67.95;100555.00;2073534;28;20041;-69
2022/07/10 01:16:56;;;;;;;3.72;1.15;;;;;;;17.00;67.82;100543.34;2073823;28;20053;-69
2022/07/10 01:18:05;;;;;;;4.00;1.17;;;;;;;16.99;67.71;100552.59;2065252;28;20451;-70
2022/07/10 01:19:12;;;;;;;3.30;1.20;;;;;;;16.99;67.74;100547.97;2067282;28;20050;-69
2022/07/10 01:20:13;;;;;;;8.15;3.00;;;;;;;17.00;67.80;100549.56;2081238;28;20410;-69
2022/07/10 01:21:35;;;;;;;2.75;1.30;;;;;;;16.97;67.46;100555.66;2065398;28;20537;-70
2022/07/10 01:22:40;;;;;;;2.38;1.08;;;;;;;16.99;67.62;100552.59;2071193;28;20512;-69
2022/07/10 01:23:49;;;;;;;2.97;1.30;;;;;;;16.91;67.46;100549.56;2078854;28;20528;-69
2022/07/10 01:24:51;;;;;;;2.58;0.70;;;;;;;16.95;67.61;100554.34;2083010;28;20104;-69
2022/07/10 01:25:58;;;;;;;5.03;1.00;;;;;;;16.96;67.36;100542.38;2089187;28;20075;-69
2022/07/10 01:27:03;;;;;;;2.97;0.70;;;;;;;16.97;67.57;100541.28;2079728;28;20061;-69
2022/07/10 01:28:05;;;;;;;7.68;1.60;;;;;;;16.98;67.47;100540.13;2065728;28;20402;-71
2022/07/10 01:29:07;;;;;;;2.28;0.93;;;;;;;16.98;67.69;100545.56;2073796;28;20041;-70
2022/07/10 01:30:11;;;;;;;3.03;0.85;;;;;;;16.99;67.63;100547.16;2080925;28;20461;-69
2022/07/10 01:31:13;;;;;;;2.53;0.80;;;;;;;16.99;67.75;100544.44;2066598;28;20043;-71
2022/07/10 01:32:15;;;;;;;2.33;1.25;;;;;;;16.99;67.44;100536.28;2057755;28;20039;-71
2022/07/10 01:33:20;;;;;;;4.85;0.90;;;;;;;17.00;67.68;100546.06;2073218;28;20034;-71
2022/07/10 01:34:28;;;;;;;6.32;1.00;;;;;;;16.99;67.74;100531.69;2076076;28;20049;-70
2022/07/10 01:35:33;;;;;;;4.80;0.80;;;;;;;17.00;67.83;100538.69;2081452;28;20508;-70
2022/07/10 01:36:37;;;;;;;1.88;0.95;;;;;;;17.01;67.88;100528.63;2081507;28;20400;-71
2022/07/10 01:37:43;;;;;;;3.00;0.77;;;;;;;17.01;67.76;100524.00;2073599;28;20034;-70
2022/07/10 01:38:46;;;;;;;1.52;0.82;;;;;;;17.00;67.70;100527.84;2079739;28;20060;-70
2022/07/10 01:39:47;;;;;;;4.35;0.85;;;;;;;17.00;67.71;100527.84;2081414;28;20037;-70
2022/07/10 01:40:49;;;;;;;2.00;0.88;;;;;;;16.97;67.91;100530.41;2064542;28;20065;-69
2022/07/10 01:41:53;;;;;;;6.28;1.27;;;;;;;16.97;67.82;100531.19;2065198;28;20053;-70
2022/07/10 01:42:56;;;;;;;4.40;0.80;;;;;;;16.97;67.98;100533.13;2065771;28;20058;-70
2022/07/10 01:43:58;;;;;;;1.50;0.80;;;;;;;16.96;68.03;100520.63;2057117;28;20046;-70
2022/07/10 01:45:02;;;;;;;4.10;1.58;;;;;;;16.96;68.19;100520.63;2057324;28;20043;-70
2022/07/10 01:46:05;;;;;;;5.70;0.82;;;;;;;16.96;68.03;100523.34;2057376;28;20035;-69
2022/07/10 01:47:11;;;;;;;4.20;1.20;;;;;;;16.95;67.84;100524.50;2073326;28;20049;-68
2022/07/10 01:48:15;;;;;;;3.70;0.70;;;;;;;16.96;67.58;100518.75;2081029;28;20045;-68
2022/07/10 01:49:20;;;;;;;2.40;0.80;;;;;;;16.96;67.63;100520.63;2081381;28;20168;-68
2022/07/10 01:50:22;;;;;;;5.55;0.98;;;;;;;16.94;67.62;100514.75;2081426;28;20045;-69
2022/07/10 01:51:27;;;;;;;2.95;0.80;;;;;;;16.91;67.89;100514.25;2073450;28;20042;-69
2022/07/10 01:52:31;;;;;;;2.72;0.95;;;;;;;16.90;67.72;100518.13;2073830;28;20422;-69
2022/07/10 01:53:34;;;;;;;3.75;1.00;;;;;;;16.91;67.86;100516.97;2077914;28;20061;-69
2022/07/10 01:54:36;;;;;;;1.88;1.00;;;;;;;16.91;67.75;100513.47;2081642;28;20029;-69
2022/07/10 01:55:40;;;;;;;3.75;0.90;;;;;;;16.90;67.89;100509.97;2081303;28;20192;-69
2022/07/10 01:56:42;;;;;;;3.88;0.80;;;;;;;16.89;68.00;100523.84;2081624;28;20091;-69
2022/07/10 01:57:49;;;;;;;4.13;0.77;;;;;;;16.89;68.00;100511.06;2080532;28;20056;-70
2022/07/10 01:58:54;;;;;;;3.20;0.77;;;;;;;16.89;68.31;100510.28;2082076;28;20073;-69
2022/07/10 01:59:59;;;;;;;4.38;1.20;;;;;;;16.87;68.20;100505.19;2065002;28;20046;-71
2022/07/10 02:01:04;;;;;;;3.35;0.98;;;;;;;16.87;68.40;100504.38;2066418;28;20043;-70
2022/07/10 02:02:08;;;;;;;3.92;0.90;;;;;;;16.86;68.40;100503.56;2073303;28;20041;-70
2022/07/10 02:04:40;;;;;;;3.85;1.20;;;;;;;16.76;68.64;100503.91;2081863;28;20056;-70
2022/07/10 02:05:44;;;;;;;4.50;1.00;;;;;;;16.77;68.65;100502.81;2072848;28;20057;-70
2022/07/10 02:06:49;;;;;;;3.85;0.88;;;;;;;16.78;68.63;100503.59;2075174;28;20113;-71
2022/07/10 02:07:51;;;;;;;3.92;1.10;;;;;;;16.73;69.32;100501.00;2082075;28;20061;-70
2022/07/10 02:08:53;;;;;;;7.32;1.35;;;;;;;16.74;68.98;100500.69;2071389;28;20046;-70
2022/07/10 02:09:57;;;;;;;3.05;0.90;;;;;;;16.75;68.96;100499.59;2073385;28;20065;-70
2022/07/10 02:11:02;;;;;;;5.63;0.95;;;;;;;16.76;68.77;100505.81;2081323;28;20045;-70
2022/07/10 02:12:10;;;;;;;2.65;0.80;;;;;;;16.76;68.49;100501.19;2082416;28;20048;-70
2022/07/10 02:13:17;;;;;;;6.13;1.35;;;;;;;16.76;68.88;100503.91;2080374;28;20045;-70
2022/07/10 02:14:19;;;;;;;2.20;0.75;;;;;;;16.75;68.94;100499.59;2074192;28;20614;-70
2022/07/10 02:15:21;;;;;;;5.03;1.10;;;;;;;16.74;68.92;100497.97;2081647;28;20049;-71
2022/07/10 02:16:23;;;;;;;3.83;1.52;;;;;;;16.74;69.16;100499.88;2081483;28;20037;-70
2022/07/10 02:17:26;;;;;;;7.53;1.10;;;;;;;16.74;69.14;100489.00;2080593;28;20100;-70
2022/07/10 02:18:32;;;;;;;4.22;0.95;;;;;;;16.74;69.44;100497.16;2081791;28;20042;-70
2022/07/10 02:19:34;;;;;;;4.82;0.98;;;;;;;16.74;69.31;100492.56;2073113;28;20057;-70
2022/07/10 02:20:36;;;;;;;3.25;1.02;;;;;;;16.74;69.33;100487.13;2065910;28;20050;-70
2022/07/10 02:21:38;;;;;;;4.95;1.33;;;;;;;16.73;69.31;100493.66;2064613;28;20065;-70
2022/07/10 02:22:42;;;;;;;5.50;0.80;;;;;;;16.72;69.45;100486.63;2065367;28;20065;-70
2022/07/10 02:23:43;;;;;;;3.42;0.90;;;;;;;16.71;69.51;100487.75;2056962;28;20050;-69
2022/07/10 02:24:46;;;;;;;3.95;0.98;;;;;;;16.72;69.70;100483.91;2056662;28;20055;-69
2022/07/10 02:25:49;;;;;;;3.55;0.85;;;;;;;16.73;69.67;100488.22;2065327;28;20522;-70
2022/07/10 02:26:51;;;;;;;3.47;0.90;;;;;;;16.72;69.48;100488.56;2066098;28;20050;-70
2022/07/10 02:27:55;;;;;;;7.03;1.50;;;;;;;16.71;69.66;100476.91;2081390;28;20060;-70
2022/07/10 02:28:57;;;;;;;4.78;0.88;;;;;;;16.70;69.62;100475.28;2089129;28;20060;-70
2022/07/10 02:30:01;;;;;;;4.20;1.20;;;;;;;16.71;69.58;100482.34;2081615;28;20505;-69
2022/07/10 02:31:06;;;;;;;3.55;0.80;;;;;;;16.72;69.56;100480.41;2068361;28;20403;-70
2022/07/10 02:32:08;;;;;;;2.80;0.77;;;;;;;16.71;69.71;100476.91;2066573;28;20054;-69
2022/07/10 02:33:12;;;;;;;2.22;0.88;;;;;;;16.70;69.93;100491.56;2081314;28;20382;-69
2022/07/10 02:34:15;;;;;;;4.25;1.00;;;;;;;16.70;69.71;100491.56;2081306;28;20061;-69
2022/07/10 02:35:16;;;;;;;5.45;0.95;;;;;;;16.68;69.75;100489.19;2065323;28;20042;-70
2022/07/10 02:36:20;;;;;;;2.55;0.90;;;;;;;16.67;69.86;100492.22;2066253;28;20050;-71
2022/07/10 02:37:22;;;;;;;6.60;1.13;;;;;;;16.67;69.88;100489.50;2081272;28;20037;-71
2022/07/10 02:38:27;;;;;;;4.57;0.90;;;;;;;16.67;69.98;100481.34;2073068;28;20045;-71
2022/07/10 02:39:28;;;;;;;5.25;0.90;;;;;;;16.67;69.89;100481.34;2064805;28;20042;-71
2022/07/10 02:40:30;;;;;;;2.85;0.82;;;;;;;16.68;69.95;100472.13;2057062;28;20542;-71
2022/07/10 02:41:32;;;;;;;3.60;1.00;;;;;;;16.69;70.00;100481.84;2057026;28;20047;-71
2022/07/10 02:42:36;;;;;;;4.65;1.23;;;;;;;16.69;70.40;100471.78;2056751;28;20062;-71
2022/07/10 02:43:39;;;;;;;4.38;0.88;;;;;;;16.70;70.21;100475.28;2073578;28;20045;-71
2022/07/10 02:44:41;;;;;;;6.45;1.20;;;;;;;16.69;70.61;100469.06;2072833;28;20061;-70
2022/07/10 02:45:44;;;;;;;5.10;0.90;;;;;;;16.68;70.26;100466.69;2065056;28;20054;-70
2022/07/10 02:46:47;;;;;;;4.85;1.10;;;;;;;16.68;69.99;100472.13;2073419;28;20046;-70
2022/07/10 02:47:51;;;;;;;9.80;1.25;;;;;;;16.68;70.08;100472.91;2081206;28;20053;-71
2022/07/10 02:48:54;;;;;;;6.95;1.10;;;;;;;16.67;70.16;100475.94;2064819;28;20416;-69
2022/07/10 02:49:56;;;;;;;4.68;1.10;;;;;;;16.68;70.18;100466.69;2057436;28;20058;-70
2022/07/10 02:50:58;;;;;;;4.10;1.20;;;;;;;16.67;70.24;100465.88;2056936;28;20038;-70
2022/07/10 02:52:02;;;;;;;5.57;1.40;;;;;;;16.68;70.34;100455.81;2057629;28;20418;-70
2022/07/10 02:53:03;;;;;;;5.07;1.00;;;;;;;16.67;70.33;100465.88;2056724;28;20050;-70
2022/07/10 02:54:07;;;;;;;4.72;1.00;;;;;;;16.66;70.59;100467.00;2057001;28;20050;-71
2022/07/10 02:55:12;;;;;;;6.40;1.30;;;;;;;16.67;70.45;100465.06;2065426;28;20065;-71
2022/07/10 02:56:16;;;;;;;3.92;1.17;;;;;;;16.66;70.33;100468.91;2081647;28;20049;-70
2022/07/10 02:57:19;;;;;;;8.13;1.67;;;;;;;16.65;70.53;100462.69;2064206;28;20126;-71
2022/07/10 02:58:22;;;;;;;6.22;1.17;;;;;;;16.65;70.58;100461.91;2066081;28;20106;-71
2022/07/10 02:59:24;;;;;;;2.50;0.98;;;;;;;16.65;70.66;100461.91;2081708;28;20045;-70
2022/07/10 03:00:30;;;;;;;5.50;1.30;;;;;;;16.65;70.87;100461.91;2072808;28;20042;-70
2022/07/10 03:01:33;;;;;;;2.83;1.00;;;;;;;16.64;70.84;100466.50;2074137;28;20383;-70
2022/07/10 03:02:39;;;;;;;4.07;1.00;;;;;;;16.63;70.89;100459.50;2081667;28;20045;-69
2022/07/10 03:03:44;;;;;;;5.00;1.00;;;;;;;16.64;70.72;100463.00;2072751;28;20057;-70
2022/07/10 03:04:47;;;;;;;3.15;1.10;;;;;;;16.62;70.87;100457.91;2078225;28;20040;-69
2022/07/10 03:05:53;;;;;;;2.95;1.00;;;;;;;16.63;70.91;100458.69;2082001;28;20049;-70
2022/07/10 03:07:00;;;;;;;1.70;0.80;;;;;;;16.64;71.23;100460.28;2081809;28;20057;-70
2022/07/10 03:08:03;;;;;;;3.00;0.90;;;;;;;16.63;70.96;100458.69;2082063;28;20068;-70
2022/07/10 03:09:08;;;;;;;4.45;1.50;;;;;;;16.63;71.04;100458.69;2064707;28;20038;-70
2022/07/10 03:10:12;;;;;;;3.78;0.98;;;;;;;16.62;71.19;100457.13;2057381;28;20034;-69
2022/07/10 03:11:16;;;;;;;6.32;1.35;;;;;;;16.62;71.04;100457.13;2058218;28;20062;-70
2022/07/10 03:12:21;;;;;;;5.28;0.95;;;;;;;16.63;71.17;100458.69;2081296;28;20057;-70
2022/07/10 03:13:26;;;;;;;5.45;1.08;;;;;;;16.60;71.03;100453.91;2081021;28;20120;-69
2022/07/10 03:14:30;;;;;;;3.55;0.95;;;;;;;16.62;71.04;100457.13;2073413;28;20038;-70
2022/07/10 03:15:34;;;;;;;6.95;0.90;;;;;;;16.61;71.33;100450.88;2057173;28;20046;-70
2022/07/10 03:16:41;;;;;;;4.28;1.10;;;;;;;16.60;71.39;100456.63;2065886;28;20526;-71
2022/07/10 03:17:48;;;;;;;2.20;0.77;;;;;;;16.59;71.31;100453.13;2080989;28;20446;-71
2022/07/10 03:18:50;;;;;;;5.35;1.00;;;;;;;16.61;71.44;100456.31;2072775;28;20054;-70
2022/07/10 03:19:54;;;;;;;3.40;1.23;;;;;;;16.59;71.42;100453.13;2073203;28;20054;-69
2022/07/10 03:20:56;;;;;;;4.18;1.33;;;;;;;16.59;71.41;100455.84;2065252;28;20065;-73
2022/07/10 03:21:59;;;;;;;4.50;1.00;;;;;;;16.59;71.61;100455.03;2072783;28;20065;-72
2022/07/10 03:23:02;;;;;;;2.65;0.80;;;;;;;16.60;71.41;100454.69;2089285;28;20044;-71
2022/07/10 03:24:09;;;;;;;5.40;1.10;;;;;;;16.60;71.78;100453.91;2072309;28;20057;-70
2022/07/10 03:25:14;;;;;;;3.28;1.08;;;;;;;16.60;71.65;100459.34;2074069;28;20053;-70
2022/07/10 03:26:16;;;;;;;3.47;0.95;;;;;;;16.60;71.53;100457.41;2080077;28;20052;-71
2022/07/10 03:27:21;;;;;;;4.03;0.95;;;;;;;16.62;71.49;100457.13;2068979;28;20057;-71
2022/07/10 03:28:23;;;;;;;4.07;1.10;;;;;;;16.61;71.59;100459.03;2073509;28;20090;-71
2022/07/10 03:29:28;;;;;;;4.18;1.00;;;;;;;16.62;71.61;100457.13;2081112;28;20049;-71
2022/07/10 03:30:33;;;;;;;4.43;1.30;;;;;;;16.60;71.73;100449.28;2064458;28;20086;-71
2022/07/10 03:31:36;;;;;;;5.97;1.20;;;;;;;16.60;71.63;100460.13;2057974;28;20058;-72
2022/07/10 03:32:41;;;;;;;6.28;1.00;;;;;;;16.60;71.79;100459.34;2064783;28;20454;-72
2022/07/10 03:33:45;;;;;;;2.17;0.98;;;;;;;16.61;72.10;100456.31;2065052;28;20034;-71
2022/07/10 03:34:47;;;;;;;3.90;1.08;;;;;;;16.59;72.03;100458.53;2063049;28;20046;-71
2022/07/10 03:35:48;;;;;;;5.35;1.67;;;;;;;16.59;72.10;100463.97;2064899;28;20582;-71
2022/07/10 03:36:52;;;;;;;4.25;1.15;;;;;;;16.58;72.18;100456.97;2081081;28;20056;-71
2022/07/10 03:37:55;;;;;;;6.50;1.40;;;;;;;16.59;72.07;100457.75;2088871;28;20053;-71
2022/07/10 03:38:58;;;;;;;4.00;1.35;;;;;;;16.58;71.80;100456.13;2084582;28;20060;-69
2022/07/10 03:40:04;;;;;;;5.10;1.20;;;;;;;16.58;71.99;100448.81;2080005;28;20056;-70
2022/07/10 03:41:09;;;;;;;6.13;1.27;;;;;;;16.59;72.23;100455.03;2080974;28;20488;-71
2022/07/10 03:42:11;;;;;;;4.45;0.98;;;;;;;16.59;71.87;100457.75;2072775;28;20038;-71
2022/07/10 03:43:15;;;;;;;6.65;1.27;;;;;;;16.59;72.07;100452.31;2064724;28;20038;-71
2022/07/10 03:44:21;;;;;;;3.47;1.10;;;;;;;16.59;71.99;100453.13;2073498;28;20109;-70
2022/07/10 03:45:29;;;;;;;7.55;1.58;;;;;;;16.60;72.24;100459.34;2081429;28;20037;-71
2022/07/10 03:46:31;;;;;;;4.53;0.98;;;;;;;16.61;72.13;100456.31;2072424;28;20391;-71
2022/07/10 03:47:34;;;;;;;5.05;1.70;;;;;;;16.62;72.15;100457.13;2072850;28;20050;-71
2022/07/10 03:48:41;;;;;;;4.50;1.10;;;;;;;16.63;72.19;100461.41;2072522;28;20042;-69
2022/07/10 03:49:43;;;;;;;8.88;1.70;;;;;;;16.64;72.39;100458.38;2077871;28;20053;-70
2022/07/10 03:50:48;;;;;;;4.10;0.95;;;;;;;16.65;72.49;100457.25;2079940;28;20425;-70
2022/07/10 03:51:51;;;;;;;9.07;1.95;;;;;;;16.67;72.46;100454.22;2080676;28;20049;-70
2022/07/10 03:52:54;;;;;;;2.70;1.13;;;;;;;16.70;72.38;100459.00;2089397;28;20405;-70
2022/07/10 03:54:00;;;;;;;4.82;1.58;;;;;;;16.75;72.21;100458.88;2072392;28;20045;-70
2022/07/10 03:55:05;;;;;;;5.15;1.33;;;;;;;16.82;72.25;100461.88;2073672;28;20050;-71
2022/07/10 03:56:07;;;;;;;5.93;1.13;;;;;;;17.00;72.05;100453.72;2072538;28;20049;-71
2022/07/10 03:59:01;;;;;;;3.63;1.00;;;;;;;17.23;71.65;100459.69;2072289;28;20101;-70
2022/07/10 04:00:05;;;;;;;4.70;1.27;;;;;;;17.38;71.46;100446.38;2072799;28;20041;-70
2022/07/10 04:01:18;;;;;;;3.60;1.00;;;;;;;17.55;71.24;100455.56;2079868;28;20663;-70
2022/07/10 04:02:23;;;;;;;5.57;1.20;;;;;;;17.70;70.93;100451.50;2064153;28;20434;-70
2022/07/10 04:03:24;;;;;;;3.78;1.00;;;;;;;17.81;70.58;100452.72;2064882;28;20046;-70
2022/07/10 04:04:49;;;;;;;5.43;0.98;;;;;;;17.96;70.18;100449.41;2075631;28;20045;-70
2022/07/10 04:06:11;;;;;;;4.50;1.08;;;;;;;18.09;69.75;100453.00;2072366;28;20425;-69
2022/07/10 04:07:16;;;;;;;4.38;0.95;;;;;;;18.19;69.69;100447.19;2064835;28;20521;-69
2022/07/10 04:08:38;;;;;;;3.40;0.90;;;;;;;18.30;69.61;100453.81;2066903;28;20050;-71
2022/07/10 04:10:03;;;;;;;2.65;0.77;;;;;;;18.31;69.31;100451.88;2067334;28;20053;-70
2022/07/10 04:11:08;;;;;;;6.53;1.10;;;;;;;18.27;69.20;100453.69;2072895;28;20038;-70
2022/07/10 04:12:29;;;;;;;5.05;1.23;;;;;;;18.33;68.75;100454.28;2071161;28;20718;-71
2022/07/10 04:13:53;;;;;;;8.55;1.45;;;;;;;18.37;68.59;100452.47;2080442;28;20064;-71
2022/07/10 04:15:16;;;;;;;6.47;1.10;;;;;;;18.40;68.01;100449.88;2080607;28;20082;-71
2022/07/10 04:16:20;;;;;;;5.63;0.90;;;;;;;18.47;67.93;100452.06;2072491;28;20490;-72
2022/07/10 04:17:45;;;;;;;2.88;1.00;;;;;;;18.58;67.61;100447.81;2071477;28;20050;-71
2022/07/10 04:19:08;;;;;;;1.85;0.70;;;;;;;18.66;67.61;100452.38;2069660;28;20053;-69
2022/07/10 04:20:32;;;;;;;5.38;1.10;;;;;;;18.64;67.19;100446.47;2072285;28;20049;-70
2022/07/10 04:21:51;;;;;;;5.43;1.00;;;;;;;18.81;67.05;100447.44;2075262;28;20057;-71
2022/07/10 04:22:56;;;;;;;1.80;1.02;;;;;;;18.87;66.54;100446.09;2075494;28;20045;-71
2022/07/10 04:24:20;;;;;;;3.55;0.90;;;;;;;18.77;66.46;100450.06;2080547;28;20033;-72
2022/07/10 04:25:41;;;;;;;3.47;0.70;;;;;;;18.69;66.54;100446.22;2083629;28;20063;-70
2022/07/10 04:26:44;;;;;;;2.58;0.80;;;;;;;18.65;66.71;100448.03;2072375;28;20065;-71
2022/07/10 04:27:46;;;;;;;2.22;0.77;;;;;;;18.59;66.71;100443.94;2064821;28;20038;-70
2022/07/10 04:28:50;;;;;;;3.13;0.70;;;;;;;18.56;66.68;100447.34;2080718;28;20049;-70
2022/07/10 04:29:53;;;;;;;4.20;0.90;;;;;;;18.49;66.75;100444.34;2081138;28;20040;-69
2022/07/10 04:30:58;;;;;;;3.10;1.00;;;;;;;18.46;66.87;100455.91;2084351;28;20060;-69
2022/07/10 04:32:05;;;;;;;2.17;0.80;;;;;;;18.42;66.53;100446.84;2088851;28;20059;-70
2022/07/10 04:33:27;;;;;;;4.75;0.88;;;;;;;18.39;66.55;100448.28;2089278;28;20511;-69
2022/07/10 04:34:51;;;;;;;5.30;0.85;;;;;;;18.36;66.68;100448.97;2083160;28;20034;-69
2022/07/10 04:35:58;;;;;;;3.13;0.90;;;;;;;18.32;66.82;100452.69;2072045;28;20065;-69
2022/07/10 04:37:22;;;;;;;5.43;1.00;;;;;;;18.26;67.02;100452.88;2067469;28;20053;-69
2022/07/10 04:38:44;;;;;;;3.72;1.00;;;;;;;18.20;67.06;100446.06;2074129;28;20048;-69
2022/07/10 04:40:07;;;;;;;4.00;0.80;;;;;;;18.17;67.08;100460.31;2077798;28;20044;-69
2022/07/10 04:41:09;;;;;;;1.83;0.88;;;;;;;18.14;66.85;100452.81;2072774;28;20057;-69
2022/07/10 04:42:30;;;;;;;3.50;0.80;;;;;;;18.12;67.12;100446.09;2072314;28;20414;-70
2022/07/10 04:43:36;;;;;;;4.70;0.85;;;;;;;18.08;67.28;100445.97;2063156;28;20041;-70
2022/07/10 04:44:43;;;;;;;4.65;1.00;;;;;;;18.06;67.25;100445.50;2064830;28;20045;-69
2022/07/10 04:46:06;;;;;;;6.35;1.00;;;;;;;18.03;67.23;100443.44;2085031;28;20044;-70
2022/07/10 04:47:09;;;;;;;2.65;0.80;;;;;;;18.00;67.02;100444.94;2079191;28;20489;-70
2022/07/10 04:48:13;;;;;;;4.20;0.80;;;;;;;17.98;67.16;100441.72;2072154;28;20033;-70
2022/07/10 04:49:35;;;;;;;3.40;0.60;;;;;;;17.95;66.78;100444.31;2066023;28;20140;-70
2022/07/10 04:50:40;;;;;;;1.70;0.75;;;;;;;17.93;66.70;100441.13;2057894;28;20049;-70
2022/07/10 04:52:02;;;;;;;3.75;0.88;;;;;;;17.90;66.73;100439.06;2072606;28;20044;-70
2022/07/10 04:53:24;;;;;;;2.40;0.80;;;;;;;17.88;66.87;100444.06;2087909;28;20052;-70
2022/07/10 04:54:47;;;;;;;3.10;0.80;;;;;;;17.85;67.17;100447.44;2079136;28;20057;-70
2022/07/10 04:55:49;;;;;;;1.08;0.60;;;;;;;17.83;67.29;100445.81;2066097;28;20058;-70
2022/07/10 04:57:12;;;;;;;1.73;0.98;;;;;;;17.84;67.48;100446.63;2060932;28;20038;-70
2022/07/10 04:58:16;;;;;;;5.07;1.00;;;;;;;17.83;67.32;100443.09;2058550;28;20046;-69
2022/07/10 04:59:19;;;;;;;5.00;1.17;;;;;;;17.80;67.48;100441.03;2063953;28;20375;-70
2022/07/10 05:00:21;;;;;;;2.85;0.93;;;;;;;17.80;67.57;100435.59;2070932;28;20048;-70
2022/07/10 05:01:23;;;;;;;2.30;0.82;;;;;;;17.79;67.69;100439.47;2079474;28;20546;-70
2022/07/10 05:02:25;;;;;;;2.72;0.98;;;;;;;17.80;68.14;100441.03;2079209;28;20037;-70
2022/07/10 05:03:31;;;;;;;2.30;0.85;;;;;;;17.77;68.16;100440.91;2079379;28;20057;-70
2022/07/10 05:04:33;;;;;;;3.08;1.13;;;;;;;17.76;68.36;100440.09;2078910;28;20041;-70
2022/07/10 05:05:36;;;;;;;3.30;0.93;;;;;;;17.76;68.24;100439.28;2079239;28;20042;-71
2022/07/10 05:06:38;;;;;;;4.65;0.85;;;;;;;17.76;68.46;100445.53;2088014;28;20041;-72
2022/07/10 05:07:43;;;;;;;5.40;0.98;;;;;;;17.76;68.39;100440.09;2087719;28;20057;-71
2022/07/10 05:08:45;;;;;;;2.00;0.98;;;;;;;17.74;68.67;100436.88;2078973;28;20053;-71